createdAt,value
2022-10-19T00:01:33.404Z,102647.97
2022-10-19T00:04:03.511Z,102641.91
2022-10-19T00:06:36.256Z,102636.69
2022-10-19T00:09:21.212Z,102642.81
2022-10-19T00:11:49.664Z,102639.44
2022-10-19T00:14:19.509Z,102640.38
2022-10-19T00:16:48.245Z,102643.00
2022-10-19T00:19:26.926Z,102635.19
2022-10-19T00:21:54.046Z,102646.38
2022-10-19T00:24:21.294Z,102642.91
2022-10-19T00:26:47.822Z,102638.53
2022-10-19T00:29:14.914Z,102638.56
2022-10-19T00:31:41.740Z,102631.72
2022-10-19T00:34:08.281Z,102636.00
2022-10-19T00:36:38.857Z,102635.13
2022-10-19T00:39:07.800Z,102632.53
2022-10-19T00:41:36.711Z,102637.75
2022-10-19T00:44:04.740Z,102636.03
2022-10-19T00:46:34.375Z,102635.19
2022-10-19T00:49:23.025Z,102637.81
2022-10-19T00:51:53.581Z,102645.59
2022-10-19T00:54:20.489Z,102639.53
2022-10-19T00:56:50.345Z,102630.94
2022-10-19T00:59:20.062Z,102630.13
2022-10-19T01:01:47.979Z,102633.59
2022-10-19T01:04:17.270Z,102631.06
2022-10-19T01:06:43.867Z,102625.91
2022-10-19T01:09:10.414Z,102621.63
2022-10-19T01:12:11.241Z,102619.03
2022-10-19T01:15:02.672Z,102619.09
2022-10-19T01:17:51.069Z,102624.28
2022-10-19T01:20:20.294Z,102619.13
2022-10-19T01:23:17.913Z,102616.59
2022-10-19T01:26:03.414Z,102617.44
2022-10-19T01:28:52.208Z,102622.69
2022-10-19T01:31:34.009Z,102619.22
2022-10-19T01:34:13.862Z,102619.19
2022-10-19T01:36:47.504Z,102615.72
2022-10-19T01:39:52.797Z,102618.38
2022-10-19T01:42:28.393Z,102612.31
2022-10-19T01:45:00.706Z,102612.34
2022-10-19T01:47:38.704Z,102616.69
2022-10-19T01:50:31.538Z,102615.81
2022-10-19T01:52:59.401Z,102607.13
2022-10-19T01:55:27.777Z,102607.09
2022-10-19T01:58:00.791Z,102605.38
2022-10-19T02:00:29.492Z,102601.13
2022-10-19T02:02:56.360Z,102602.84
2022-10-19T02:05:28.174Z,102595.97
2022-10-19T02:08:11.083Z,102601.19
2022-10-19T02:10:39.757Z,102597.72
2022-10-19T02:13:08.149Z,102593.41
2022-10-19T02:15:39.697Z,102585.63
2022-10-19T02:18:08.249Z,102593.44
2022-10-19T02:20:37.050Z,102590.84
2022-10-19T02:23:07.378Z,102586.53
2022-10-19T02:25:34.730Z,102590.88
2022-10-19T02:28:02.642Z,102590.88
2022-10-19T02:30:29.362Z,102595.19
2022-10-19T02:32:56.016Z,102590.00
2022-10-19T02:35:23.052Z,102582.25
2022-10-19T02:37:50.370Z,102583.97
2022-10-19T02:40:17.046Z,102580.53
2022-10-19T02:43:00.370Z,102578.00
2022-10-19T02:45:35.154Z,102579.75
2022-10-19T02:48:13.759Z,102576.34
2022-10-19T02:50:44.270Z,102572.00
2022-10-19T02:53:11.097Z,102574.59
2022-10-19T02:55:37.713Z,102578.06
2022-10-19T02:58:04.241Z,102569.47
2022-10-19T03:00:30.729Z,102562.53
2022-10-19T03:02:57.407Z,102565.97
2022-10-19T03:05:23.907Z,102559.00
2022-10-19T03:07:50.412Z,102554.69
2022-10-19T03:10:16.976Z,102556.41
2022-10-19T03:12:43.484Z,102550.41
2022-10-19T03:15:14.722Z,102546.06
2022-10-19T03:17:41.268Z,102543.50
2022-10-19T03:20:08.626Z,102548.75
2022-10-19T03:22:35.166Z,102553.94
2022-10-19T03:25:01.744Z,102550.50
2022-10-19T03:27:28.334Z,102556.53
2022-10-19T03:29:54.970Z,102550.50
2022-10-19T03:32:21.605Z,102551.41
2022-10-19T03:34:48.101Z,102556.53
2022-10-19T03:37:15.403Z,102560.91
2022-10-19T03:39:41.900Z,102555.75
2022-10-19T03:42:08.374Z,102555.75
2022-10-19T03:44:34.886Z,102560.09
2022-10-19T03:47:01.406Z,102562.66
2022-10-19T03:49:27.935Z,102566.97
2022-10-19T03:51:54.463Z,102574.78
2022-10-19T03:54:23.681Z,102571.31
2022-10-19T03:56:53.663Z,102574.81
2022-10-19T03:59:20.257Z,102573.06
2022-10-19T04:01:46.767Z,102571.31
2022-10-19T04:04:16.994Z,102575.63
2022-10-19T04:06:46.227Z,102573.06
2022-10-19T04:09:16.439Z,102575.63
2022-10-19T04:11:43.758Z,102570.44
2022-10-19T04:14:19.081Z,102574.81
2022-10-19T04:16:54.071Z,102574.84
2022-10-19T04:19:21.008Z,102570.56
2022-10-19T04:21:49.229Z,102560.19
2022-10-19T04:24:17.912Z,102563.66
2022-10-19T04:26:49.667Z,102562.78
2022-10-19T04:29:19.462Z,102559.34
2022-10-19T04:31:48.115Z,102561.09
2022-10-19T04:34:14.655Z,102559.34
2022-10-19T04:36:41.124Z,102561.94
2022-10-19T04:39:08.403Z,102553.31
2022-10-19T04:41:35.250Z,102561.09
2022-10-19T04:44:03.722Z,102554.16
2022-10-19T04:46:30.681Z,102562.78
2022-10-19T04:48:57.712Z,102557.59
2022-10-19T04:51:25.216Z,102561.94
2022-10-19T04:53:53.463Z,102555.00
2022-10-19T04:56:26.231Z,102554.19
2022-10-19T04:58:56.508Z,102556.81
2022-10-19T05:01:24.677Z,102554.22
2022-10-19T05:04:03.542Z,102553.31
2022-10-19T05:06:31.437Z,102552.47
2022-10-19T05:08:58.879Z,102545.53
2022-10-19T05:11:25.848Z,102540.44
2022-10-19T05:13:52.817Z,102540.41
2022-10-19T05:16:21.846Z,102544.75
2022-10-19T05:18:50.746Z,102543.84
2022-10-19T05:21:18.724Z,102538.69
2022-10-19T05:23:45.527Z,102544.72
2022-10-19T05:26:20.230Z,102541.28
2022-10-19T05:28:51.620Z,102542.97
2022-10-19T05:31:20.233Z,102541.28
2022-10-19T05:33:47.383Z,102538.69
2022-10-19T05:36:19.419Z,102538.69
2022-10-19T05:38:50.175Z,102539.56
2022-10-19T05:41:17.480Z,102536.97
2022-10-19T05:43:45.569Z,102550.78
2022-10-19T05:46:15.017Z,102539.56
2022-10-19T05:48:41.805Z,102549.91
2022-10-19T05:51:11.349Z,102545.59
2022-10-19T05:56:06.867Z,102542.16
2022-10-19T05:58:34.548Z,102545.59
2022-10-19T06:01:02.305Z,102550.78
2022-10-19T06:03:29.477Z,102543.88
2022-10-19T06:05:57.168Z,102544.72
2022-10-19T06:08:26.546Z,102544.72
2022-10-19T06:10:53.127Z,102544.75
2022-10-19T06:13:20.441Z,102541.28
2022-10-19T06:15:51.185Z,102543.88
2022-10-19T06:18:17.743Z,102539.56
2022-10-19T06:20:44.345Z,60685.94
2022-10-19T06:23:10.947Z,60685.94
2022-10-19T06:25:37.538Z,60685.94
2022-10-19T06:28:04.594Z,60685.94
2022-10-19T06:30:31.379Z,60685.94
2022-10-19T06:32:59.419Z,60685.94
2022-10-19T06:35:26.045Z,60685.94
2022-10-19T06:37:52.594Z,60685.94
2022-10-19T06:40:19.229Z,60685.94
2022-10-19T06:42:45.858Z,60685.94
2022-10-19T06:45:12.402Z,60685.94
2022-10-19T06:47:39.170Z,60685.94
2022-10-19T06:50:07.406Z,60685.94
2022-10-19T06:52:35.634Z,60685.94
2022-10-19T06:55:02.796Z,60685.94
2022-10-19T06:57:29.519Z,60685.94
2022-10-19T06:59:56.081Z,60685.94
2022-10-19T07:02:22.592Z,60685.94
2022-10-19T07:04:49.640Z,60685.94
2022-10-19T07:07:16.173Z,60685.94
2022-10-19T07:09:42.670Z,60685.94
2022-10-19T07:12:11.182Z,60685.94
2022-10-19T07:14:38.781Z,60685.94
2022-10-19T07:17:10.279Z,60685.94
2022-10-19T07:19:36.927Z,60685.94
2022-10-19T07:22:03.630Z,60685.94
2022-10-19T07:24:30.239Z,60685.94
2022-10-19T07:26:58.104Z,60685.94
2022-10-19T07:29:24.653Z,60685.94
2022-10-19T07:31:51.153Z,60685.94
2022-10-19T07:34:17.884Z,60685.94
2022-10-19T07:36:48.184Z,60685.94
2022-10-19T07:39:17.222Z,60685.94
2022-10-19T07:41:44.470Z,60685.94
2022-10-19T07:44:15.600Z,60685.94
2022-10-19T07:46:42.668Z,60685.94
2022-10-19T07:49:12.900Z,60685.94
2022-10-19T07:51:40.267Z,60685.94
2022-10-19T07:54:06.864Z,60685.94
2022-10-19T07:56:33.469Z,60685.94
2022-10-19T07:59:01.900Z,60685.94
2022-10-19T08:01:31.612Z,60685.94
2022-10-19T08:06:46.567Z,60685.94
2022-10-19T08:09:27.769Z,60685.94
2022-10-19T08:11:59.804Z,60685.94
2022-10-19T08:14:26.362Z,60685.94
2022-10-19T08:16:52.889Z,60685.94
2022-10-19T08:19:19.676Z,60685.94
2022-10-19T08:21:47.193Z,60685.94
2022-10-19T08:24:15.903Z,60685.94
2022-10-19T08:26:45.496Z,60685.94
2022-10-19T08:29:15.205Z,60685.94
2022-10-19T08:31:42.907Z,60685.94
2022-10-19T08:34:10.174Z,60685.94
2022-10-19T08:36:37.248Z,60685.94
2022-10-19T08:39:05.882Z,60685.94
2022-10-19T08:41:41.479Z,60685.94
2022-10-19T08:44:10.120Z,60685.94
2022-10-19T08:47:02.702Z,60685.94
2022-10-19T08:49:31.826Z,60685.94
2022-10-19T08:52:02.487Z,60685.94
2022-10-19T08:54:40.724Z,60685.94
2022-10-19T08:57:22.550Z,60685.94
2022-10-19T09:00:03.072Z,60685.94
2022-10-19T09:02:54.123Z,60685.94
2022-10-19T09:05:40.797Z,60685.94
2022-10-19T09:08:12.139Z,60685.94
2022-10-19T09:10:45.098Z,60685.94
2022-10-19T09:14:00.566Z,60685.94
2022-10-19T09:16:29.048Z,60685.94
2022-10-19T09:18:55.691Z,60685.94
2022-10-19T09:21:34.463Z,60685.94
2022-10-19T09:24:52.140Z,60685.94
2022-10-19T09:27:21.472Z,60685.94
2022-10-19T09:29:55.247Z,60685.94
2022-10-19T09:32:26.758Z,60685.94
2022-10-19T09:34:56.716Z,60685.94
2022-10-19T09:37:26.562Z,60685.94
2022-10-19T09:39:55.554Z,60685.94
2022-10-19T09:42:34.338Z,60685.94
2022-10-19T09:45:12.035Z,60685.94
2022-10-19T09:47:42.585Z,60685.94
2022-10-19T09:50:09.134Z,60685.94
2022-10-19T09:52:40.760Z,60685.94
2022-10-19T09:55:29.617Z,60685.94
2022-10-19T09:58:27.010Z,60685.94
2022-10-19T10:00:56.826Z,60685.94
2022-10-19T10:03:41.770Z,60685.94
2022-10-19T10:06:15.802Z,60685.94
2022-10-19T10:08:50.998Z,60685.94
2022-10-19T10:11:27.565Z,60685.94
2022-10-19T10:13:56.226Z,60685.94
2022-10-19T10:16:24.816Z,60685.94
2022-10-19T10:18:58.570Z,60685.94
2022-10-19T10:21:29.261Z,60685.94
2022-10-19T10:24:10.885Z,60685.94
2022-10-19T10:26:49.737Z,60685.94
2022-10-19T10:29:20.269Z,60685.94
2022-10-19T10:32:08.253Z,60685.94
2022-10-19T10:34:49.360Z,60685.94
2022-10-19T10:37:21.801Z,60685.94
2022-10-19T10:39:53.202Z,60685.94
2022-10-19T10:42:28.445Z,60685.94
2022-10-19T10:44:58.300Z,60685.94
2022-10-19T10:47:27.309Z,60685.94
2022-10-19T10:50:24.600Z,60685.94
2022-10-19T10:53:02.974Z,60685.94
2022-10-19T10:55:31.109Z,60685.94
2022-10-19T10:58:09.335Z,60685.94
2022-10-19T11:00:40.315Z,60685.94
2022-10-19T11:03:16.036Z,60685.94
2022-10-19T11:05:51.828Z,60685.94
2022-10-19T11:08:27.568Z,60685.94
2022-10-19T11:10:57.534Z,60685.94
2022-10-19T11:13:34.017Z,60685.94
2022-10-19T11:16:12.670Z,60685.94
2022-10-19T11:18:44.743Z,60685.94
2022-10-19T11:21:15.729Z,60685.94
2022-10-19T11:24:03.694Z,60685.94
2022-10-19T11:26:58.725Z,60685.94
2022-10-19T11:29:34.287Z,60685.94
2022-10-19T11:32:00.890Z,60685.94
2022-10-19T11:34:57.356Z,60685.94
2022-10-19T11:37:50.205Z,60685.94
2022-10-19T11:40:49.607Z,60685.94
2022-10-19T11:43:44.637Z,60685.94
2022-10-19T11:46:52.381Z,60685.94
2022-10-19T11:49:55.680Z,60685.94
2022-10-19T11:52:49.171Z,60685.94
2022-10-19T11:55:45.397Z,60685.94
2022-10-19T11:58:42.892Z,60685.94
2022-10-19T12:01:51.324Z,60685.94
2022-10-19T12:04:35.902Z,60685.94
2022-10-19T12:07:16.789Z,60685.94
2022-10-19T12:09:48.434Z,60685.94
2022-10-19T12:12:36.128Z,60685.94
2022-10-19T12:15:19.510Z,60685.94
2022-10-19T12:17:49.915Z,60685.94
2022-10-19T12:20:37.365Z,60685.94
2022-10-19T12:23:21.639Z,60685.94
2022-10-19T12:25:49.857Z,60685.94
2022-10-19T12:28:26.851Z,60685.94
2022-10-19T12:30:54.669Z,60685.94
2022-10-19T12:33:31.414Z,60685.94
2022-10-19T12:36:24.618Z,60685.94
2022-10-19T12:39:01.626Z,60685.94
2022-10-19T12:41:44.323Z,60685.94
2022-10-19T12:44:47.919Z,60685.94
2022-10-19T12:47:19.274Z,60685.94
2022-10-19T12:49:47.919Z,60685.94
2022-10-19T12:52:17.117Z,60685.94
2022-10-19T12:54:44.408Z,60685.94
2022-10-19T12:57:29.726Z,60685.94
2022-10-19T13:00:32.352Z,60685.94
2022-10-19T13:03:24.040Z,60685.94
2022-10-19T13:06:09.452Z,60685.94
2022-10-19T13:08:55.465Z,60685.94
2022-10-19T13:11:23.183Z,60685.94
2022-10-19T13:14:00.563Z,60685.94
2022-10-19T13:16:30.111Z,60685.94
2022-10-19T13:18:59.659Z,60685.94
2022-10-19T13:21:44.981Z,60685.94
2022-10-19T13:24:26.535Z,60685.94
2022-10-19T13:27:26.264Z,60685.94
2022-10-19T13:29:52.849Z,60685.94
2022-10-19T13:32:33.228Z,60685.94
2022-10-19T13:35:24.770Z,60685.94
2022-10-19T13:38:11.016Z,60685.94
2022-10-19T13:40:41.373Z,60685.94
2022-10-19T13:43:19.749Z,60685.94
2022-10-19T13:46:04.844Z,60685.94
2022-10-19T13:48:58.543Z,60685.94
2022-10-19T13:52:02.997Z,60685.94
2022-10-19T13:54:51.267Z,60685.94
2022-10-19T13:57:17.804Z,60685.94
2022-10-19T14:00:12.891Z,60685.94
2022-10-19T14:03:05.354Z,60685.94
2022-10-19T14:05:58.701Z,60685.94
2022-10-19T14:08:34.508Z,60685.94
2022-10-19T14:11:12.422Z,60685.94
2022-10-19T14:13:38.983Z,60685.94
2022-10-19T14:16:05.917Z,60685.94
2022-10-19T14:18:34.902Z,60685.94
2022-10-19T14:21:07.726Z,60685.94
2022-10-19T14:23:37.099Z,60685.94
2022-10-19T14:26:07.365Z,60685.94
2022-10-19T14:28:34.898Z,60685.94
2022-10-19T14:31:10.468Z,60685.94
2022-10-19T14:33:41.041Z,60685.94
2022-10-19T14:36:14.753Z,60685.94
2022-10-19T14:38:46.558Z,60685.94
2022-10-19T14:41:19.545Z,60685.94
2022-10-19T14:43:46.236Z,60685.94
2022-10-19T14:46:14.228Z,60685.94
2022-10-19T14:48:45.544Z,60685.94
2022-10-19T14:51:18.547Z,60685.94
2022-10-19T14:53:50.410Z,60685.94
2022-10-19T14:56:32.175Z,60685.94
2022-10-19T14:59:03.002Z,60685.94
2022-10-19T15:01:29.610Z,60685.94
2022-10-19T15:03:56.609Z,60685.94
2022-10-19T15:06:28.456Z,60685.94
2022-10-19T15:09:01.986Z,60685.94
2022-10-19T15:11:32.584Z,60685.94
2022-10-19T15:14:06.417Z,60685.94
2022-10-19T15:16:35.055Z,60685.94
2022-10-19T15:19:17.702Z,60685.94
2022-10-19T15:21:45.118Z,60685.94
2022-10-19T15:24:28.177Z,60685.94
2022-10-19T15:27:08.844Z,60685.94
2022-10-19T15:29:36.164Z,60685.94
2022-10-19T15:32:39.672Z,60685.94
2022-10-19T15:35:29.434Z,60685.94
2022-10-19T15:38:05.391Z,60685.94
2022-10-19T15:40:35.814Z,60685.94
2022-10-19T15:43:31.070Z,60685.94
2022-10-19T15:46:12.955Z,60685.94
2022-10-19T15:48:44.396Z,60685.94
2022-10-19T15:51:23.376Z,60685.94
2022-10-19T15:53:54.661Z,60685.94
2022-10-19T15:56:23.483Z,60685.94
2022-10-19T15:58:51.390Z,60685.94
2022-10-19T16:01:20.879Z,60685.94
2022-10-19T16:03:47.674Z,60685.94
2022-10-19T16:06:15.792Z,60685.94
2022-10-19T16:08:42.532Z,60685.94
2022-10-19T16:11:12.908Z,60685.94
2022-10-19T16:13:39.399Z,60685.94
2022-10-19T16:16:11.303Z,60685.94
2022-10-19T16:18:38.570Z,60685.94
2022-10-19T16:21:05.820Z,60685.94
2022-10-19T16:23:37.809Z,60685.94
2022-10-19T16:26:07.802Z,60685.94
2022-10-19T16:28:34.289Z,60685.94
2022-10-19T16:31:00.805Z,60685.94
2022-10-19T16:33:27.305Z,60685.94
2022-10-19T16:35:53.840Z,60685.94
2022-10-19T16:38:20.419Z,60685.94
2022-10-19T16:40:46.956Z,60685.94
2022-10-19T16:43:13.466Z,60685.94
2022-10-19T16:45:43.490Z,60685.94
2022-10-19T16:48:12.807Z,60685.94
2022-10-19T16:50:39.385Z,60685.94
2022-10-19T16:53:10.445Z,60685.94
2022-10-19T16:55:38.001Z,60685.94
2022-10-19T16:58:04.518Z,60685.94
2022-10-19T17:00:31.208Z,60685.94
2022-10-19T17:02:57.793Z,60685.94
2022-10-19T17:05:24.331Z,60685.94
2022-10-19T17:07:54.021Z,60685.94
2022-10-19T17:10:20.875Z,60685.94
2022-10-19T17:12:47.554Z,60685.94
2022-10-19T17:18:01.133Z,60685.94
2022-10-19T17:20:27.875Z,60685.94
2022-10-19T17:22:54.406Z,60685.94
2022-10-19T17:25:23.455Z,60685.94
2022-10-19T17:27:51.302Z,60685.94
2022-10-19T17:30:18.762Z,60685.94
2022-10-19T17:32:45.299Z,60685.94
2022-10-19T17:35:11.798Z,60685.94
2022-10-19T17:37:38.467Z,60685.94
2022-10-19T17:40:05.845Z,60685.94
2022-10-19T17:42:34.409Z,60685.94
2022-10-19T17:45:01.027Z,60685.94
2022-10-19T17:47:27.548Z,60685.94
2022-10-19T17:49:54.325Z,60685.94
2022-10-19T17:52:21.385Z,60685.94
2022-10-19T17:54:54.677Z,60685.94
2022-10-19T17:57:36.396Z,60685.94
2022-10-19T18:00:03.416Z,60685.94
2022-10-19T18:02:29.972Z,60685.94
2022-10-19T18:04:56.558Z,60685.94
2022-10-19T18:07:25.673Z,60685.94
2022-10-19T18:09:52.668Z,60685.94
2022-10-19T18:12:19.234Z,60685.94
2022-10-19T18:14:45.789Z,60685.94
2022-10-19T18:17:12.322Z,60685.94
2022-10-19T18:19:38.829Z,60685.94
2022-10-19T18:22:05.571Z,60685.94
2022-10-19T18:24:33.000Z,60685.94
2022-10-19T18:26:59.548Z,60685.94
2022-10-19T18:29:26.922Z,60685.94
2022-10-19T18:31:53.755Z,60685.94
2022-10-19T18:34:25.461Z,60685.94
2022-10-19T18:36:53.047Z,60685.94
2022-10-19T18:39:20.068Z,60685.94
2022-10-19T18:41:51.782Z,60685.94
2022-10-19T18:44:22.143Z,60685.94
2022-10-19T18:46:52.657Z,60685.94
2022-10-19T18:49:19.158Z,60685.94
2022-10-19T18:51:50.724Z,60685.94
2022-10-19T18:54:21.088Z,60685.94
2022-10-19T18:56:47.621Z,60685.94
2022-10-19T18:59:14.933Z,60685.94
2022-10-19T19:01:41.665Z,60685.94
2022-10-19T19:04:09.509Z,60685.94
2022-10-19T19:06:37.752Z,60685.94
2022-10-19T19:09:08.294Z,60685.94
2022-10-19T19:11:37.684Z,60685.94
2022-10-19T19:14:15.932Z,60685.94
2022-10-19T19:16:44.260Z,60685.94
2022-10-19T19:19:13.215Z,60685.94
2022-10-19T19:21:41.821Z,60685.94
2022-10-19T19:24:08.639Z,60685.94
2022-10-19T19:26:39.409Z,60685.94
2022-10-19T19:29:05.929Z,60685.94
2022-10-19T19:31:32.537Z,60685.94
2022-10-19T19:34:01.106Z,60685.94
2022-10-19T19:36:28.188Z,60685.94
2022-10-19T19:38:56.526Z,60685.94
2022-10-19T19:41:23.218Z,60685.94
2022-10-19T19:43:49.703Z,60685.94
2022-10-19T19:46:18.326Z,60685.94
2022-10-19T19:48:46.702Z,60685.94
2022-10-19T19:51:19.213Z,60685.94
2022-10-19T19:53:47.202Z,60685.94
2022-10-19T19:56:15.652Z,60685.94
2022-10-19T19:58:43.359Z,60685.94
2022-10-19T20:01:14.171Z,60685.94
2022-10-19T20:03:41.390Z,60685.94
2022-10-19T20:06:08.424Z,60685.94
2022-10-19T20:08:36.372Z,60685.94
2022-10-19T20:11:06.102Z,60685.94
2022-10-19T20:13:32.750Z,60685.94
2022-10-19T20:16:06.286Z,60685.94
2022-10-19T20:18:35.045Z,60685.94
2022-10-19T20:21:02.874Z,60685.94
2022-10-19T20:23:30.072Z,60685.94
2022-10-19T20:25:56.703Z,60685.94
2022-10-19T20:28:27.065Z,60685.94
2022-10-19T20:31:06.375Z,60685.94
2022-10-19T20:33:35.799Z,60685.94
2022-10-19T20:36:13.749Z,60685.94
2022-10-19T20:38:40.858Z,60685.94
2022-10-19T20:41:09.743Z,60685.94
2022-10-19T20:43:37.637Z,60685.94
2022-10-19T20:46:16.132Z,60685.94
2022-10-19T20:48:42.674Z,60685.94
2022-10-19T20:51:16.681Z,60685.94
2022-10-19T20:53:46.360Z,60685.94
2022-10-19T20:56:15.166Z,60685.94
2022-10-19T20:58:42.814Z,60685.94
2022-10-19T21:01:15.697Z,60685.94
2022-10-19T21:03:50.921Z,60685.94
2022-10-19T21:06:17.375Z,60685.94
2022-10-19T21:08:44.014Z,60685.94
2022-10-19T21:11:16.614Z,60685.94
2022-10-19T21:13:44.003Z,60685.94
2022-10-19T21:16:10.522Z,60685.94
2022-10-19T21:18:37.411Z,60685.94
2022-10-19T21:21:21.703Z,60685.94
2022-10-19T21:23:52.274Z,60685.94
2022-10-19T21:26:18.870Z,60685.94
2022-10-19T21:28:49.941Z,60685.94
2022-10-19T21:31:17.482Z,60685.94
2022-10-19T21:33:44.756Z,60685.94
2022-10-19T21:36:13.121Z,60685.94
2022-10-19T21:38:39.721Z,60685.94
2022-10-19T21:41:10.318Z,60685.94
2022-10-19T21:43:36.850Z,60685.94
2022-10-19T21:46:08.669Z,60685.94
2022-10-19T21:48:35.244Z,60685.94
2022-10-19T21:51:32.157Z,60685.94
2022-10-19T21:53:59.217Z,60685.94
2022-10-19T21:56:25.810Z,60685.94
2022-10-19T21:58:54.059Z,60685.94
2022-10-19T22:01:23.801Z,60685.94
2022-10-19T22:03:54.637Z,60685.94
2022-10-19T22:06:21.121Z,60685.94
2022-10-19T22:08:47.774Z,60685.94
2022-10-19T22:11:14.733Z,60685.94
2022-10-19T22:13:41.982Z,60685.94
2022-10-19T22:16:20.026Z,60685.94
2022-10-19T22:18:47.771Z,60685.94
2022-10-19T22:21:23.238Z,60685.94
2022-10-19T22:23:55.197Z,60685.94
2022-10-19T22:26:27.623Z,60685.94
2022-10-19T22:28:59.096Z,60685.94
2022-10-19T22:31:27.381Z,60685.94
2022-10-19T22:33:54.364Z,60685.94
2022-10-19T22:36:20.931Z,60685.94
2022-10-19T22:38:47.511Z,60685.94
2022-10-19T22:41:14.085Z,60685.94
2022-10-19T22:43:40.580Z,60685.94
2022-10-19T22:46:07.210Z,60685.94
2022-10-19T22:48:34.341Z,60685.94
2022-10-19T22:51:00.937Z,60685.94
2022-10-19T22:53:27.466Z,60685.94
2022-10-19T22:55:54.070Z,60685.94
2022-10-19T22:58:20.606Z,60685.94
2022-10-19T23:01:01.590Z,60685.94
2022-10-19T23:03:28.143Z,60685.94
2022-10-19T23:05:54.706Z,60685.94
2022-10-19T23:08:21.267Z,60685.94
2022-10-19T23:10:47.775Z,60685.94
2022-10-19T23:13:15.214Z,60685.94
2022-10-19T23:15:43.969Z,60685.94
2022-10-19T23:18:11.340Z,60685.94
2022-10-19T23:20:38.020Z,60685.94
2022-10-19T23:23:04.805Z,60685.94
2022-10-19T23:27:58.863Z,60685.94
2022-10-19T23:30:25.415Z,60685.94
2022-10-19T23:32:51.968Z,60685.94
2022-10-19T23:35:18.487Z,60685.94
2022-10-19T23:37:45.004Z,60685.94
2022-10-19T23:40:11.849Z,60685.94
2022-10-19T23:42:38.555Z,60685.94
2022-10-19T23:45:05.566Z,60685.94
2022-10-19T23:47:32.233Z,60685.94
2022-10-19T23:49:58.814Z,60685.94
2022-10-19T23:52:25.289Z,60685.94
2022-10-19T23:54:52.004Z,60685.94
2022-10-19T23:57:18.475Z,60685.94
2022-10-19T23:59:44.985Z,60685.94
